createdAt,value
2019-04-25T00:01:15.713Z,88.13
2019-04-25T00:03:45.281Z,88.48
2019-04-25T00:06:15.282Z,88.52
2019-04-25T00:08:45.308Z,88.92
2019-04-25T00:11:14.753Z,89.35
2019-04-25T00:13:44.114Z,90.05
2019-04-25T00:16:16.853Z,89.70
2019-04-25T00:18:46.345Z,88.92
2019-04-25T00:21:26.337Z,88.13
2019-04-25T00:23:57.287Z,87.86
2019-04-25T00:26:28.454Z,88.94
2019-04-25T00:28:57.803Z,88.76
2019-04-25T00:31:27.510Z,89.18
2019-04-25T00:33:56.867Z,89.61
2019-04-25T00:36:26.330Z,89.03
2019-04-25T00:38:55.662Z,89.37
2019-04-25T00:41:24.957Z,88.98
2019-04-25T00:43:54.324Z,88.11
2019-04-25T00:46:23.745Z,90.05
2019-04-25T00:48:53.026Z,88.59
2019-04-25T00:51:22.505Z,89.39
2019-04-25T00:53:54.698Z,89.88
2019-04-25T00:56:23.055Z,89.79
2019-04-25T00:59:03.198Z,89.86
2019-04-25T01:01:41.406Z,90.51
2019-04-25T01:04:12.264Z,89.56
2019-04-25T01:06:42.196Z,89.38
2019-04-25T01:09:16.143Z,89.16
2019-04-25T01:11:45.924Z,89.97
2019-04-25T01:14:15.380Z,90.21
2019-04-25T01:16:45.067Z,89.82
2019-04-25T01:19:14.331Z,89.77
2019-04-25T01:21:44.040Z,90.61
2019-04-25T01:24:15.727Z,90.72
2019-04-25T01:26:47.510Z,90.63
2019-04-25T01:29:16.834Z,91.04
2019-04-25T01:31:46.614Z,90.37
2019-04-25T01:34:17.648Z,90.50
2019-04-25T01:37:05.877Z,91.31
2019-04-25T01:39:40.639Z,91.49
2019-04-25T01:42:20.425Z,91.76
2019-04-25T01:44:51.659Z,91.57
2019-04-25T01:47:22.007Z,92.47
2019-04-25T01:49:52.269Z,91.51
2019-04-25T01:52:23.525Z,92.17
2019-04-25T01:54:54.705Z,91.69
2019-04-25T01:57:24.075Z,91.12
2019-04-25T01:59:54.065Z,90.69
2019-04-25T02:02:26.212Z,90.45
2019-04-25T02:04:58.803Z,90.37
2019-04-25T02:07:26.510Z,89.88
2019-04-25T02:09:56.019Z,90.59
2019-04-25T02:12:27.075Z,91.03
2019-04-25T02:14:58.077Z,90.64
2019-04-25T02:17:27.516Z,90.36
2019-04-25T02:19:57.823Z,89.39
2019-04-25T02:22:27.229Z,90.56
2019-04-25T02:24:57.109Z,90.99
2019-04-25T02:27:26.677Z,90.97
2019-04-25T02:29:57.208Z,91.57
2019-04-25T02:32:26.608Z,90.54
2019-04-25T02:35:00.508Z,90.56
2019-04-25T02:37:27.067Z,91.19
2019-04-25T02:39:59.744Z,91.89
2019-04-25T02:42:27.634Z,91.11
2019-04-25T02:45:00.672Z,91.56
2019-04-25T02:47:34.485Z,90.98
2019-04-25T02:50:09.716Z,90.79
2019-04-25T02:52:40.784Z,91.80
2019-04-25T02:55:11.448Z,91.57
2019-04-25T02:57:44.703Z,92.02
2019-04-25T03:00:25.778Z,92.22
2019-04-25T03:02:57.335Z,92.45
2019-04-25T03:05:26.179Z,91.94
2019-04-25T03:07:55.485Z,91.90
2019-04-25T03:10:26.951Z,92.11
2019-04-25T03:12:55.730Z,91.77
2019-04-25T03:15:25.004Z,91.28
2019-04-25T03:17:54.713Z,91.80
2019-04-25T03:20:28.526Z,91.53
2019-04-25T03:23:01.117Z,90.75
2019-04-25T03:25:30.502Z,90.78
2019-04-25T03:27:59.871Z,91.21
2019-04-25T03:30:29.142Z,90.76
2019-04-25T03:32:58.430Z,90.70
2019-04-25T03:35:27.829Z,91.31
2019-04-25T03:37:57.094Z,89.41
2019-04-25T03:40:26.391Z,89.47
2019-04-25T03:42:55.650Z,90.42
2019-04-25T03:45:24.944Z,89.76
2019-04-25T03:47:54.214Z,88.35
2019-04-25T03:50:23.517Z,89.19
2019-04-25T03:52:54.046Z,88.04
2019-04-25T03:55:24.466Z,89.43
2019-04-25T03:57:53.968Z,88.79
2019-04-25T04:00:24.096Z,88.41
2019-04-25T04:02:55.415Z,88.18
2019-04-25T04:05:24.811Z,86.92
2019-04-25T04:07:54.090Z,87.82
2019-04-25T04:10:24.897Z,86.96
2019-04-25T04:12:54.371Z,87.07
2019-04-25T04:15:25.217Z,86.59
2019-04-25T04:17:56.944Z,85.70
2019-04-25T04:20:33.668Z,86.11
2019-04-25T04:23:05.580Z,85.52
2019-04-25T04:25:35.170Z,84.68
2019-04-25T04:28:04.440Z,85.36
2019-04-25T04:30:33.992Z,83.67
2019-04-25T04:33:03.688Z,84.27
2019-04-25T04:35:34.399Z,84.13
2019-04-25T04:38:04.301Z,83.58
2019-04-25T04:40:34.405Z,83.56
2019-04-25T04:43:04.571Z,83.23
2019-04-25T04:45:34.486Z,83.49
2019-04-25T04:48:03.933Z,82.84
2019-04-25T04:50:33.617Z,82.32
2019-04-25T04:53:03.908Z,81.93
2019-04-25T04:55:34.341Z,81.87
2019-04-25T04:58:04.234Z,82.66
2019-04-25T05:00:33.912Z,81.71
2019-04-25T05:03:11.190Z,81.26
2019-04-25T05:05:43.934Z,81.33
2019-04-25T05:08:25.446Z,80.67
2019-04-25T05:10:57.264Z,80.93
2019-04-25T05:13:26.199Z,81.71
2019-04-25T05:15:55.560Z,81.14
2019-04-25T05:18:34.512Z,81.18
2019-04-25T05:20:55.824Z,80.87
2019-04-25T05:23:25.135Z,80.23
2019-04-25T05:25:55.777Z,79.83
2019-04-25T05:28:25.255Z,79.48
2019-04-25T05:31:05.267Z,80.15
2019-04-25T05:33:35.638Z,79.93
2019-04-25T05:36:05.876Z,80.24
2019-04-25T05:38:35.372Z,80.37
2019-04-25T05:41:09.102Z,79.79
2019-04-25T05:43:38.408Z,80.23
2019-04-25T05:46:07.756Z,80.47
2019-04-25T05:48:37.106Z,81.02
2019-04-25T05:51:06.403Z,80.42
2019-04-25T05:53:35.686Z,80.41
2019-04-25T05:56:06.504Z,79.45
2019-04-25T05:58:35.813Z,79.93
2019-04-25T06:01:05.140Z,79.18
2019-04-25T06:03:35.517Z,79.77
2019-04-25T06:06:05.028Z,79.62
2019-04-25T06:08:36.019Z,78.96
2019-04-25T06:11:13.583Z,78.55
2019-04-25T06:13:45.727Z,77.75
2019-04-25T06:16:24.262Z,78.06
2019-04-25T06:19:13.727Z,77.65
2019-04-25T06:21:35.964Z,78.10
2019-04-25T06:24:25.553Z,78.05
2019-04-25T06:26:57.455Z,78.63
2019-04-25T06:29:26.758Z,76.27
2019-04-25T06:32:05.636Z,76.59
2019-04-25T06:34:29.519Z,75.76
2019-04-25T06:36:58.446Z,75.15
2019-04-25T06:39:27.992Z,75.54
2019-04-25T06:41:57.423Z,76.35
2019-04-25T06:44:29.336Z,75.42
2019-04-25T06:47:06.399Z,78.04
2019-04-25T06:49:37.506Z,76.69
2019-04-25T06:52:06.834Z,74.58
2019-04-25T06:54:36.278Z,76.20
2019-04-25T06:57:05.601Z,75.09
2019-04-25T06:59:37.802Z,76.46
2019-04-25T07:02:05.939Z,76.03
2019-04-25T07:04:35.211Z,76.95
2019-04-25T07:07:12.374Z,76.08
2019-04-25T07:09:36.124Z,74.71
2019-04-25T07:12:05.442Z,74.67
2019-04-25T07:14:36.941Z,75.14
2019-04-25T07:17:05.729Z,73.93
2019-04-25T07:19:35.605Z,74.10
2019-04-25T07:22:05.269Z,73.52
2019-04-25T07:24:36.006Z,72.32
2019-04-25T07:27:07.028Z,72.80
2019-04-25T07:29:54.285Z,71.28
2019-04-25T07:32:30.839Z,71.17
2019-04-25T07:34:59.522Z,71.29
2019-04-25T07:37:29.837Z,71.78
2019-04-25T07:39:59.723Z,71.84
2019-04-25T07:42:29.828Z,72.29
2019-04-25T07:45:01.301Z,70.74
2019-04-25T07:47:31.933Z,70.54
2019-04-25T07:50:01.794Z,69.64
2019-04-25T07:52:33.230Z,70.47
2019-04-25T07:55:03.788Z,70.45
2019-04-25T07:57:34.897Z,70.12
2019-04-25T08:00:13.118Z,69.23
2019-04-25T08:02:44.237Z,69.18
2019-04-25T08:05:17.414Z,67.87
2019-04-25T08:07:46.776Z,67.67
2019-04-25T08:10:16.829Z,68.52
2019-04-25T08:12:47.513Z,66.47
2019-04-25T08:15:18.870Z,67.57
2019-04-25T08:18:08.136Z,67.02
2019-04-25T08:20:37.776Z,67.91
2019-04-25T08:23:07.080Z,67.02
2019-04-25T08:25:39.265Z,66.37
2019-04-25T08:28:07.456Z,65.28
2019-04-25T08:30:38.084Z,64.90
2019-04-25T08:33:07.747Z,63.98
2019-04-25T08:35:38.150Z,62.84
2019-04-25T08:38:07.596Z,62.69
2019-04-25T08:40:37.722Z,61.89
2019-04-25T08:43:07.918Z,62.97
2019-04-25T08:45:38.355Z,60.43
2019-04-25T08:48:08.017Z,57.96
2019-04-25T08:50:53.980Z,57.65
2019-04-25T08:53:24.903Z,59.04
2019-04-25T08:55:58.571Z,57.76
2019-04-25T08:58:44.653Z,57.02
2019-04-25T09:01:18.884Z,54.84
2019-04-25T09:03:50.991Z,57.66
2019-04-25T09:06:20.295Z,56.19
2019-04-25T09:08:49.794Z,55.83
2019-04-25T09:11:19.675Z,57.84
2019-04-25T09:13:49.145Z,56.24
2019-04-25T09:16:18.436Z,55.18
2019-04-25T09:18:47.754Z,57.99
2019-04-25T09:21:17.039Z,56.08
2019-04-25T09:23:46.335Z,57.64
2019-04-25T09:26:15.637Z,53.20
2019-04-25T09:28:46.593Z,50.52
2019-04-25T09:31:16.081Z,51.17
2019-04-25T09:33:50.049Z,50.10
2019-04-25T09:36:19.367Z,51.06
2019-04-25T09:38:50.308Z,50.09
2019-04-25T09:41:19.587Z,50.15
2019-04-25T09:43:52.991Z,49.42
2019-04-25T09:46:35.262Z,48.53
2019-04-25T09:49:06.922Z,45.56
2019-04-25T09:51:37.935Z,46.34
2019-04-25T09:54:24.840Z,46.68
2019-04-25T09:56:55.897Z,48.15
2019-04-25T09:59:27.953Z,50.06
2019-04-25T10:01:56.561Z,47.28
2019-04-25T10:04:26.506Z,45.05
2019-04-25T10:06:55.815Z,46.63
2019-04-25T10:09:25.500Z,47.99
2019-04-25T10:11:54.887Z,47.59
2019-04-25T10:14:39.010Z,45.30
2019-04-25T10:17:08.528Z,46.92
2019-04-25T10:19:37.821Z,49.21
2019-04-25T10:22:07.115Z,45.30
2019-04-25T10:24:37.417Z,46.63
2019-04-25T10:27:08.818Z,46.60
2019-04-25T10:29:44.817Z,48.80
2019-04-25T10:32:10.357Z,48.87
2019-04-25T10:34:40.309Z,45.45
2019-04-25T10:37:13.805Z,47.48
2019-04-25T10:39:43.847Z,48.55
2019-04-25T10:42:14.061Z,46.67
2019-04-25T10:44:46.123Z,43.96
2019-04-25T10:47:15.552Z,42.24
2019-04-25T10:49:45.860Z,44.26
2019-04-25T10:52:15.663Z,42.54
2019-04-25T10:54:45.814Z,44.70
2019-04-25T10:57:16.151Z,45.70
2019-04-25T10:59:55.230Z,42.40
2019-04-25T11:02:17.498Z,43.18
2019-04-25T11:04:49.807Z,41.89
2019-04-25T11:07:19.225Z,43.36
2019-04-25T11:09:49.238Z,42.16
2019-04-25T11:12:19.547Z,39.43
2019-04-25T11:14:50.528Z,43.34
2019-04-25T11:17:19.978Z,43.94
2019-04-25T11:19:49.445Z,43.79
2019-04-25T11:22:19.143Z,44.02
2019-04-25T11:24:48.666Z,43.87
2019-04-25T11:27:18.096Z,44.71
2019-04-25T11:29:48.354Z,46.41
2019-04-25T11:32:19.945Z,46.14
2019-04-25T11:34:49.571Z,45.52
2019-04-25T11:37:20.628Z,46.60
2019-04-25T11:39:51.584Z,46.63
2019-04-25T11:42:20.885Z,46.03
2019-04-25T11:44:50.335Z,46.06
2019-04-25T11:47:19.858Z,46.02
2019-04-25T11:49:49.342Z,47.84
2019-04-25T11:52:27.583Z,46.45
2019-04-25T11:54:50.095Z,46.52
2019-04-25T11:57:19.422Z,47.68
2019-04-25T11:59:50.455Z,48.21
2019-04-25T12:02:20.472Z,48.94
2019-04-25T12:04:49.787Z,49.00
2019-04-25T12:07:19.323Z,48.76
2019-04-25T12:09:48.822Z,49.35
2019-04-25T12:12:18.122Z,49.61
2019-04-25T12:14:47.661Z,50.02
2019-04-25T12:17:17.527Z,50.12
2019-04-25T12:19:47.054Z,50.89
2019-04-25T12:22:18.984Z,50.60
2019-04-25T12:24:48.286Z,50.19
2019-04-25T12:27:17.603Z,50.60
2019-04-25T12:29:46.911Z,51.75
2019-04-25T12:32:16.211Z,50.35
2019-04-25T12:34:45.850Z,50.57
2019-04-25T12:37:15.257Z,51.75
2019-04-25T12:39:44.566Z,53.87
2019-04-25T12:42:14.512Z,52.58
2019-04-25T12:45:01.870Z,54.91
2019-04-25T12:47:39.643Z,58.03
2019-04-25T12:50:09.392Z,58.56
2019-04-25T12:52:38.669Z,60.14
2019-04-25T12:55:09.202Z,62.91
2019-04-25T12:57:38.505Z,66.86
2019-04-25T13:00:08.073Z,66.86
2019-04-25T13:02:37.926Z,65.94
2019-04-25T13:05:07.405Z,70.04
2019-04-25T13:07:38.583Z,73.87
2019-04-25T13:10:08.688Z,77.28
2019-04-25T13:12:39.493Z,79.19
2019-04-25T13:15:09.851Z,80.37
2019-04-25T13:17:39.565Z,84.06
2019-04-25T13:20:09.585Z,84.52
2019-04-25T13:22:38.905Z,84.63
2019-04-25T13:25:08.523Z,84.70
2019-04-25T13:27:39.518Z,86.34
2019-04-25T13:30:14.075Z,86.26
2019-04-25T13:33:04.404Z,85.00
2019-04-25T13:35:35.548Z,87.12
2019-04-25T13:38:04.948Z,86.71
2019-04-25T13:40:34.257Z,87.19
2019-04-25T13:43:05.218Z,87.41
2019-04-25T13:45:34.538Z,85.69
2019-04-25T13:48:04.937Z,86.80
2019-04-25T13:50:34.701Z,87.54
2019-04-25T13:53:03.982Z,86.93
2019-04-25T13:55:34.960Z,86.30
2019-04-25T13:58:05.479Z,86.66
2019-04-25T14:00:36.226Z,87.94
2019-04-25T14:03:05.638Z,85.20
2019-04-25T14:05:35.441Z,86.55
2019-04-25T14:08:04.731Z,86.78
2019-04-25T14:10:34.420Z,87.29
2019-04-25T14:13:05.057Z,87.00
2019-04-25T14:15:37.166Z,86.25
2019-04-25T14:18:11.489Z,87.51
2019-04-25T14:20:43.606Z,87.89
2019-04-25T14:23:15.049Z,87.54
2019-04-25T14:25:44.524Z,87.34
2019-04-25T14:28:14.207Z,88.12
2019-04-25T14:30:44.293Z,87.79
2019-04-25T14:33:14.721Z,87.92
2019-04-25T14:35:44.037Z,87.08
2019-04-25T14:38:14.936Z,87.37
2019-04-25T14:40:47.202Z,86.82
2019-04-25T14:43:16.547Z,87.00
2019-04-25T14:45:45.912Z,87.09
2019-04-25T14:48:15.259Z,86.61
2019-04-25T14:50:44.555Z,85.58
2019-04-25T14:53:13.827Z,86.07
2019-04-25T14:55:44.784Z,87.13
2019-04-25T14:58:15.721Z,85.00
2019-04-25T15:00:46.843Z,86.52
2019-04-25T15:03:16.198Z,86.22
2019-04-25T15:05:45.555Z,86.41
2019-04-25T15:08:14.852Z,86.50
2019-04-25T15:10:44.439Z,86.66
2019-04-25T15:13:14.122Z,85.71
2019-04-25T15:15:43.492Z,85.05
2019-04-25T15:18:14.302Z,85.49
2019-04-25T15:20:43.608Z,85.90
2019-04-25T15:23:12.883Z,84.83
2019-04-25T15:25:42.343Z,82.73
2019-04-25T15:28:11.650Z,82.00
2019-04-25T15:30:41.303Z,79.56
2019-04-25T15:33:12.467Z,82.07
2019-04-25T15:35:44.969Z,81.62
2019-04-25T15:38:15.426Z,80.98
2019-04-25T15:41:02.338Z,79.43
2019-04-25T15:43:33.484Z,79.94
2019-04-25T15:46:16.678Z,79.37
2019-04-25T15:48:45.926Z,79.08
2019-04-25T15:51:15.262Z,79.68
2019-04-25T15:53:44.610Z,78.11
2019-04-25T15:56:14.003Z,81.27
2019-04-25T15:58:43.235Z,75.42
2019-04-25T16:01:13.209Z,78.79
2019-04-25T16:03:42.493Z,76.28
2019-04-25T16:06:11.882Z,76.83
2019-04-25T16:08:41.221Z,76.23
2019-04-25T16:11:10.534Z,75.41
2019-04-25T16:13:39.933Z,76.26
2019-04-25T16:16:09.565Z,76.78
2019-04-25T16:18:41.183Z,77.20
2019-04-25T16:21:10.802Z,74.29
2019-04-25T16:23:40.093Z,77.70
2019-04-25T16:26:09.663Z,75.90
2019-04-25T16:28:39.263Z,76.15
2019-04-25T16:31:10.264Z,75.23
2019-04-25T16:33:39.762Z,76.27
2019-04-25T16:36:09.316Z,74.22
2019-04-25T16:38:39.062Z,73.10
2019-04-25T16:41:09.439Z,73.01
2019-04-25T16:43:41.041Z,73.63
2019-04-25T16:46:10.865Z,72.18
2019-04-25T16:48:41.073Z,72.96
2019-04-25T16:51:10.609Z,73.75
2019-04-25T16:53:40.110Z,71.14
2019-04-25T16:56:10.933Z,72.65
2019-04-25T16:58:40.778Z,73.36
2019-04-25T17:01:11.962Z,72.12
2019-04-25T17:03:41.849Z,71.78
2019-04-25T17:06:11.309Z,71.70
2019-04-25T17:08:41.503Z,73.50
2019-04-25T17:11:11.053Z,75.32
2019-04-25T17:13:42.595Z,75.33
2019-04-25T17:16:13.632Z,74.06
2019-04-25T17:18:44.545Z,74.90
2019-04-25T17:21:14.143Z,74.91
2019-04-25T17:23:43.694Z,73.86
2019-04-25T17:26:15.052Z,73.46
2019-04-25T17:28:46.682Z,74.69
2019-04-25T17:31:17.810Z,75.01
2019-04-25T17:33:54.796Z,75.40
2019-04-25T17:36:33.258Z,73.95
2019-04-25T17:39:04.228Z,73.01
2019-04-25T17:41:36.089Z,73.87
2019-04-25T17:44:05.670Z,73.93
2019-04-25T17:46:36.125Z,74.02
2019-04-25T17:49:05.595Z,74.83
2019-04-25T17:51:34.921Z,74.10
2019-04-25T17:54:04.410Z,74.28
2019-04-25T17:56:34.465Z,75.28
2019-04-25T17:59:03.847Z,75.34
2019-04-25T18:01:34.064Z,75.61
2019-04-25T18:04:04.776Z,73.99
2019-04-25T18:06:34.365Z,74.79
2019-04-25T18:09:06.221Z,73.79
2019-04-25T18:11:36.743Z,72.64
2019-04-25T18:14:07.552Z,72.68
2019-04-25T18:16:44.943Z,72.50
2019-04-25T18:19:15.989Z,73.00
2019-04-25T18:21:45.452Z,73.00
2019-04-25T18:24:33.185Z,73.03
2019-04-25T18:27:04.250Z,74.27
2019-04-25T18:29:35.060Z,72.88
2019-04-25T18:32:05.741Z,72.97
2019-04-25T18:34:37.421Z,72.13
2019-04-25T18:37:24.768Z,73.98
2019-04-25T18:39:58.139Z,71.93
2019-04-25T18:42:29.072Z,72.79
2019-04-25T18:44:58.442Z,71.79
2019-04-25T18:47:29.395Z,71.25
2019-04-25T18:50:00.426Z,72.89
2019-04-25T18:52:38.580Z,72.43
2019-04-25T18:55:16.321Z,71.57
2019-04-25T18:58:03.703Z,72.01
2019-04-25T19:00:34.697Z,71.66
2019-04-25T19:03:05.666Z,72.00
2019-04-25T19:05:40.978Z,71.93
2019-04-25T19:08:10.427Z,71.54
2019-04-25T19:10:41.273Z,71.59
2019-04-25T19:13:12.749Z,72.45
2019-04-25T19:15:43.095Z,71.87
2019-04-25T19:18:12.490Z,71.07
2019-04-25T19:20:42.155Z,71.13
2019-04-25T19:23:11.495Z,71.21
2019-04-25T19:25:41.599Z,71.02
2019-04-25T19:28:11.957Z,71.76
2019-04-25T19:30:41.269Z,72.40
2019-04-25T19:33:10.596Z,71.39
2019-04-25T19:35:40.786Z,70.82
2019-04-25T19:38:10.972Z,70.51
2019-04-25T19:40:42.264Z,70.88
2019-04-25T19:43:21.827Z,70.01
2019-04-25T19:45:51.240Z,71.81
2019-04-25T19:48:20.528Z,71.61
2019-04-25T19:50:50.632Z,71.82
2019-04-25T19:53:19.999Z,72.15
2019-04-25T19:55:49.714Z,72.02
2019-04-25T19:58:19.091Z,72.66
2019-04-25T20:00:50.834Z,73.33
2019-04-25T20:03:21.939Z,72.69
2019-04-25T20:06:10.734Z,72.73
2019-04-25T20:08:42.277Z,73.12
2019-04-25T20:11:14.360Z,72.98
2019-04-25T20:13:45.427Z,73.12
2019-04-25T20:16:15.083Z,73.46
2019-04-25T20:18:45.603Z,73.42
2019-04-25T20:21:15.293Z,73.62
2019-04-25T20:23:45.389Z,73.80
2019-04-25T20:26:15.822Z,74.77
2019-04-25T20:28:46.150Z,73.99
2019-04-25T20:31:15.726Z,73.95
2019-04-25T20:33:45.572Z,73.95
2019-04-25T20:36:17.979Z,74.12
2019-04-25T20:38:47.136Z,74.01
2019-04-25T20:41:16.689Z,74.23
2019-04-25T20:43:46.455Z,74.91
2019-04-25T20:46:16.904Z,75.54
2019-04-25T20:48:46.873Z,74.91
2019-04-25T20:51:16.649Z,75.83
2019-04-25T20:53:46.476Z,76.48
2019-04-25T20:56:16.693Z,75.71
2019-04-25T20:58:47.694Z,76.27
2019-04-25T21:01:17.156Z,76.95
2019-04-25T21:03:47.508Z,77.44
2019-04-25T21:06:28.392Z,77.47
2019-04-25T21:08:57.762Z,77.49
2019-04-25T21:11:28.120Z,77.32
2019-04-25T21:14:01.823Z,77.19
2019-04-25T21:16:51.870Z,77.50
2019-04-25T21:19:22.865Z,77.76
2019-04-25T21:21:52.158Z,77.55
2019-04-25T21:24:21.461Z,77.68
2019-04-25T21:26:51.661Z,78.00
2019-04-25T21:29:21.826Z,77.49
2019-04-25T21:31:51.307Z,77.72
2019-04-25T21:34:27.113Z,78.13
2019-04-25T21:36:52.217Z,78.09
2019-04-25T21:39:24.369Z,78.24
2019-04-25T21:42:07.270Z,79.13
2019-04-25T21:44:36.752Z,79.25
2019-04-25T21:47:06.219Z,78.60
2019-04-25T21:49:35.845Z,78.96
2019-04-25T21:52:05.147Z,79.20
2019-04-25T21:54:34.693Z,79.25
2019-04-25T21:57:04.256Z,79.36
2019-04-25T21:59:33.726Z,79.13
2019-04-25T22:02:03.236Z,79.07
2019-04-25T22:04:38.868Z,79.31
2019-04-25T22:07:05.089Z,79.25
2019-04-25T22:09:34.802Z,79.56
2019-04-25T22:12:07.389Z,79.15
2019-04-25T22:14:38.147Z,79.28
2019-04-25T22:17:07.991Z,79.31
2019-04-25T22:19:37.553Z,79.71
2019-04-25T22:22:07.303Z,79.00
2019-04-25T22:24:36.584Z,79.23
2019-04-25T22:27:07.667Z,79.77
2019-04-25T22:29:38.666Z,79.42
2019-04-25T22:32:09.573Z,79.08
2019-04-25T22:34:51.610Z,79.06
2019-04-25T22:37:12.138Z,79.00
2019-04-25T22:39:41.714Z,78.75
2019-04-25T22:42:11.206Z,78.70
2019-04-25T22:44:41.572Z,78.78
2019-04-25T22:47:10.849Z,79.06
2019-04-25T22:49:40.234Z,79.14
2019-04-25T22:52:11.191Z,78.59
2019-04-25T22:54:40.511Z,78.82
2019-04-25T22:57:09.777Z,78.95
2019-04-25T22:59:39.707Z,79.85
2019-04-25T23:02:11.677Z,79.02
2019-04-25T23:04:42.927Z,78.93
2019-04-25T23:07:12.469Z,79.16
2019-04-25T23:09:41.863Z,79.35
2019-04-25T23:12:11.398Z,79.33
2019-04-25T23:14:41.771Z,79.39
2019-04-25T23:17:11.512Z,79.21
2019-04-25T23:19:41.604Z,79.67
2019-04-25T23:22:11.573Z,79.20
2019-04-25T23:24:42.590Z,79.22
2019-04-25T23:27:31.656Z,79.86
2019-04-25T23:30:01.005Z,79.63
2019-04-25T23:32:31.819Z,80.00
2019-04-25T23:35:01.105Z,80.41
2019-04-25T23:37:30.364Z,81.08
2019-04-25T23:39:59.647Z,80.67
2019-04-25T23:42:28.913Z,80.84
2019-04-25T23:44:58.552Z,80.98
2019-04-25T23:47:28.021Z,81.51
2019-04-25T23:49:57.710Z,80.98
2019-04-25T23:52:27.079Z,81.40
2019-04-25T23:54:56.362Z,81.33
2019-04-25T23:57:25.911Z,81.81
2019-04-25T23:59:55.196Z,81.70
